Terminal Aerodrome Forecast
Issued by NWS Sterling, VA

Home | Current Version | Previous Version | Text Only | Print | Product List | Glossary On
Versions: 1 2 3 4 5 6 7 8 9 10 11 12 13 14
000
FTUS41 KLWX 292300 RRA
TAFCHO
TAF
KCHO 292345Z 3000/3024 20009KT P6SM BKN050
     FM300800 28007KT P6SM BKN050
     FM301200 31012KT P6SM SCT050
     FM301600 31017G25KT P6SM SCT050=

USA.gov is the U.S. government's official web portal to all federal, state and local government web resources and services.